sensor_id;sensor_type;location;lat;lon;timestamp;P1;durP1;ratioP1;P2;durP2;ratioP2
71462;SDS011;59266;52.608;13.260;2022-09-17T00:00:45;7.22;;;2.25;;
71462;SDS011;59266;52.608;13.260;2022-09-17T00:03:14;15.45;;;2.30;;
71462;SDS011;59266;52.608;13.260;2022-09-17T00:05:42;9.57;;;2.05;;
71462;SDS011;59266;52.608;13.260;2022-09-17T00:08:10;9.75;;;2.17;;
71462;SDS011;59266;52.608;13.260;2022-09-17T00:10:40;9.85;;;1.98;;
71462;SDS011;59266;52.608;13.260;2022-09-17T00:13:09;10.82;;;2.03;;
71462;SDS011;59266;52.608;13.260;2022-09-17T00:15:42;11.13;;;2.40;;
71462;SDS011;59266;52.608;13.260;2022-09-17T00:18:10;10.35;;;2.22;;
71462;SDS011;59266;52.608;13.260;2022-09-17T00:20:43;11.63;;;2.50;;
71462;SDS011;59266;52.608;13.260;2022-09-17T00:23:11;7.63;;;2.38;;
71462;SDS011;59266;52.608;13.260;2022-09-17T00:25:40;10.70;;;2.45;;
71462;SDS011;59266;52.608;13.260;2022-09-17T00:28:09;8.00;;;1.80;;
71462;SDS011;59266;52.608;13.260;2022-09-17T00:30:38;9.00;;;2.30;;
71462;SDS011;59266;52.608;13.260;2022-09-17T00:33:12;9.60;;;2.00;;
71462;SDS011;59266;52.608;13.260;2022-09-17T00:35:40;13.85;;;2.28;;
71462;SDS011;59266;52.608;13.260;2022-09-17T00:38:07;9.00;;;2.40;;
71462;SDS011;59266;52.608;13.260;2022-09-17T00:40:34;11.35;;;2.30;;
71462;SDS011;59266;52.608;13.260;2022-09-17T00:43:01;8.90;;;2.17;;
71462;SDS011;59266;52.608;13.260;2022-09-17T00:45:27;10.55;;;2.35;;
71462;SDS011;59266;52.608;13.260;2022-09-17T00:47:57;13.40;;;2.50;;
71462;SDS011;59266;52.608;13.260;2022-09-17T00:50:28;9.00;;;2.42;;
71462;SDS011;59266;52.608;13.260;2022-09-17T00:53:00;9.68;;;2.80;;
71462;SDS011;59266;52.608;13.260;2022-09-17T00:56:04;9.25;;;2.10;;
71462;SDS011;59266;52.608;13.260;2022-09-17T00:58:36;8.80;;;2.30;;
71462;SDS011;59266;52.608;13.260;2022-09-17T01:01:06;11.35;;;2.33;;
71462;SDS011;59266;52.608;13.260;2022-09-17T01:03:33;10.90;;;2.72;;
71462;SDS011;59266;52.608;13.260;2022-09-17T01:06:06;7.13;;;2.22;;
71462;SDS011;59266;52.608;13.260;2022-09-17T01:12:04;8.68;;;1.90;;
71462;SDS011;59266;52.608;13.260;2022-09-17T01:17:37;9.93;;;2.33;;
71462;SDS011;59266;52.608;13.260;2022-09-17T01:23:40;11.48;;;2.38;;
71462;SDS011;59266;52.608;13.260;2022-09-17T01:34:57;12.80;;;3.38;;
71462;SDS011;59266;52.608;13.260;2022-09-17T01:40:27;9.70;;;2.25;;
71462;SDS011;59266;52.608;13.260;2022-09-17T01:45:50;8.45;;;2.30;;
71462;SDS011;59266;52.608;13.260;2022-09-17T01:48:19;12.15;;;2.25;;
71462;SDS011;59266;52.608;13.260;2022-09-17T01:50:51;13.82;;;2.85;;
71462;SDS011;59266;52.608;13.260;2022-09-17T01:53:21;15.10;;;2.65;;
71462;SDS011;59266;52.608;13.260;2022-09-17T01:55:50;14.60;;;2.90;;
71462;SDS011;59266;52.608;13.260;2022-09-17T01:58:22;14.13;;;2.80;;
71462;SDS011;59266;52.608;13.260;2022-09-17T02:00:54;15.60;;;2.45;;
71462;SDS011;59266;52.608;13.260;2022-09-17T02:03:31;9.48;;;2.50;;
71462;SDS011;59266;52.608;13.260;2022-09-17T02:06:07;12.88;;;2.42;;
71462;SDS011;59266;52.608;13.260;2022-09-17T02:08:41;13.20;;;2.70;;
71462;SDS011;59266;52.608;13.260;2022-09-17T02:11:12;16.15;;;3.00;;
71462;SDS011;59266;52.608;13.260;2022-09-17T02:13:57;11.52;;;2.60;;
71462;SDS011;59266;52.608;13.260;2022-09-17T02:16:26;12.48;;;2.90;;
71462;SDS011;59266;52.608;13.260;2022-09-17T02:19:00;22.00;;;3.20;;
71462;SDS011;59266;52.608;13.260;2022-09-17T02:24:07;15.98;;;2.60;;
71462;SDS011;59266;52.608;13.260;2022-09-17T02:26:50;10.52;;;2.95;;
71462;SDS011;59266;52.608;13.260;2022-09-17T02:29:25;10.20;;;2.33;;
71462;SDS011;59266;52.608;13.260;2022-09-17T02:31:57;15.48;;;2.67;;
71462;SDS011;59266;52.608;13.260;2022-09-17T02:34:24;12.95;;;3.05;;
71462;SDS011;59266;52.608;13.260;2022-09-17T02:36:53;14.32;;;2.60;;
71462;SDS011;59266;52.608;13.260;2022-09-17T02:39:20;16.25;;;3.05;;
71462;SDS011;59266;52.608;13.260;2022-09-17T02:41:51;14.90;;;2.40;;
71462;SDS011;59266;52.608;13.260;2022-09-17T02:47:24;12.18;;;3.28;;
71462;SDS011;59266;52.608;13.260;2022-09-17T02:50:11;13.85;;;2.58;;
71462;SDS011;59266;52.608;13.260;2022-09-17T02:52:56;11.63;;;2.67;;
71462;SDS011;59266;52.608;13.260;2022-09-17T02:55:51;14.75;;;2.88;;
71462;SDS011;59266;52.608;13.260;2022-09-17T02:58:44;17.77;;;2.80;;
71462;SDS011;59266;52.608;13.260;2022-09-17T03:01:21;17.67;;;2.63;;
71462;SDS011;59266;52.608;13.260;2022-09-17T03:03:53;16.83;;;2.88;;
71462;SDS011;59266;52.608;13.260;2022-09-17T03:06:23;11.68;;;2.90;;
71462;SDS011;59266;52.608;13.260;2022-09-17T03:08:50;14.98;;;2.60;;
71462;SDS011;59266;52.608;13.260;2022-09-17T03:11:17;11.93;;;2.30;;
71462;SDS011;59266;52.608;13.260;2022-09-17T03:13:43;8.23;;;2.30;;
71462;SDS011;59266;52.608;13.260;2022-09-17T03:16:10;16.17;;;2.42;;
71462;SDS011;59266;52.608;13.260;2022-09-17T03:18:37;13.82;;;2.60;;
71462;SDS011;59266;52.608;13.260;2022-09-17T03:21:03;14.20;;;2.45;;
71462;SDS011;59266;52.608;13.260;2022-09-17T03:23:30;9.30;;;2.53;;
71462;SDS011;59266;52.608;13.260;2022-09-17T03:25:58;13.68;;;2.75;;
71462;SDS011;59266;52.608;13.260;2022-09-17T03:28:24;14.93;;;2.33;;
71462;SDS011;59266;52.608;13.260;2022-09-17T03:30:52;14.85;;;2.47;;
71462;SDS011;59266;52.608;13.260;2022-09-17T03:33:19;14.98;;;2.55;;
71462;SDS011;59266;52.608;13.260;2022-09-17T03:35:46;17.23;;;2.70;;
71462;SDS011;59266;52.608;13.260;2022-09-17T03:38:12;9.98;;;2.33;;
71462;SDS011;59266;52.608;13.260;2022-09-17T03:40:39;17.45;;;3.10;;
71462;SDS011;59266;52.608;13.260;2022-09-17T03:43:05;13.02;;;2.40;;
71462;SDS011;59266;52.608;13.260;2022-09-17T03:45:32;12.30;;;2.10;;
71462;SDS011;59266;52.608;13.260;2022-09-17T03:47:58;16.42;;;2.85;;
71462;SDS011;59266;52.608;13.260;2022-09-17T03:50:25;15.25;;;2.50;;
71462;SDS011;59266;52.608;13.260;2022-09-17T03:52:51;12.73;;;2.53;;
71462;SDS011;59266;52.608;13.260;2022-09-17T03:55:18;14.93;;;2.63;;
71462;SDS011;59266;52.608;13.260;2022-09-17T03:57:45;11.90;;;2.15;;
71462;SDS011;59266;52.608;13.260;2022-09-17T04:00:12;14.27;;;2.65;;
71462;SDS011;59266;52.608;13.260;2022-09-17T04:02:40;17.23;;;2.55;;
71462;SDS011;59266;52.608;13.260;2022-09-17T04:05:07;14.20;;;2.80;;
71462;SDS011;59266;52.608;13.260;2022-09-17T04:07:35;11.98;;;2.00;;
71462;SDS011;59266;52.608;13.260;2022-09-17T04:10:02;12.00;;;2.30;;
71462;SDS011;59266;52.608;13.260;2022-09-17T04:12:30;16.05;;;3.40;;
71462;SDS011;59266;52.608;13.260;2022-09-17T04:14:57;10.00;;;2.40;;
71462;SDS011;59266;52.608;13.260;2022-09-17T04:17:23;7.72;;;2.22;;
71462;SDS011;59266;52.608;13.260;2022-09-17T04:19:50;12.40;;;2.63;;
71462;SDS011;59266;52.608;13.260;2022-09-17T04:22:16;11.25;;;2.20;;
71462;SDS011;59266;52.608;13.260;2022-09-17T04:24:43;12.50;;;2.58;;
71462;SDS011;59266;52.608;13.260;2022-09-17T04:27:09;12.90;;;2.40;;
71462;SDS011;59266;52.608;13.260;2022-09-17T04:29:36;10.80;;;2.70;;
71462;SDS011;59266;52.608;13.260;2022-09-17T04:32:02;13.20;;;2.65;;
71462;SDS011;59266;52.608;13.260;2022-09-17T04:34:29;11.38;;;2.40;;
71462;SDS011;59266;52.608;13.260;2022-09-17T04:36:56;20.23;;;2.92;;
71462;SDS011;59266;52.608;13.260;2022-09-17T04:39:23;11.00;;;2.33;;
71462;SDS011;59266;52.608;13.260;2022-09-17T04:41:50;10.27;;;2.75;;
71462;SDS011;59266;52.608;13.260;2022-09-17T04:44:16;20.80;;;2.78;;
71462;SDS011;59266;52.608;13.260;2022-09-17T04:46:42;14.85;;;2.42;;
71462;SDS011;59266;52.608;13.260;2022-09-17T04:49:09;16.58;;;3.05;;
71462;SDS011;59266;52.608;13.260;2022-09-17T04:51:36;14.55;;;2.67;;
71462;SDS011;59266;52.608;13.260;2022-09-17T04:54:02;15.35;;;2.65;;
71462;SDS011;59266;52.608;13.260;2022-09-17T04:56:29;12.52;;;2.55;;
71462;SDS011;59266;52.608;13.260;2022-09-17T04:58:55;8.32;;;2.20;;
71462;SDS011;59266;52.608;13.260;2022-09-17T05:01:22;14.07;;;2.65;;
71462;SDS011;59266;52.608;13.260;2022-09-17T05:03:48;14.27;;;2.45;;
71462;SDS011;59266;52.608;13.260;2022-09-17T05:06:15;12.85;;;2.63;;
71462;SDS011;59266;52.608;13.260;2022-09-17T05:08:41;12.65;;;2.67;;
71462;SDS011;59266;52.608;13.260;2022-09-17T05:11:08;22.15;;;3.03;;
71462;SDS011;59266;52.608;13.260;2022-09-17T05:13:34;18.60;;;2.72;;
71462;SDS011;59266;52.608;13.260;2022-09-17T05:16:01;17.30;;;2.55;;
71462;SDS011;59266;52.608;13.260;2022-09-17T05:18:28;12.05;;;2.60;;
71462;SDS011;59266;52.608;13.260;2022-09-17T05:20:55;14.43;;;2.42;;
71462;SDS011;59266;52.608;13.260;2022-09-17T05:23:21;13.30;;;2.30;;
71462;SDS011;59266;52.608;13.260;2022-09-17T05:25:48;12.75;;;2.72;;
71462;SDS011;59266;52.608;13.260;2022-09-17T05:28:15;14.00;;;2.65;;
71462;SDS011;59266;52.608;13.260;2022-09-17T05:30:42;12.32;;;2.53;;
71462;SDS011;59266;52.608;13.260;2022-09-17T05:33:09;12.63;;;2.33;;
71462;SDS011;59266;52.608;13.260;2022-09-17T05:35:35;15.68;;;2.63;;
71462;SDS011;59266;52.608;13.260;2022-09-17T05:38:03;14.52;;;2.63;;
71462;SDS011;59266;52.608;13.260;2022-09-17T05:40:31;11.30;;;2.60;;
71462;SDS011;59266;52.608;13.260;2022-09-17T05:43:01;15.00;;;2.75;;
71462;SDS011;59266;52.608;13.260;2022-09-17T05:45:29;18.30;;;2.80;;
71462;SDS011;59266;52.608;13.260;2022-09-17T05:47:58;19.55;;;2.65;;
71462;SDS011;59266;52.608;13.260;2022-09-17T05:50:27;14.13;;;2.78;;
71462;SDS011;59266;52.608;13.260;2022-09-17T05:52:54;13.50;;;2.83;;
71462;SDS011;59266;52.608;13.260;2022-09-17T05:55:21;23.00;;;3.10;;
71462;SDS011;59266;52.608;13.260;2022-09-17T05:57:49;17.63;;;2.92;;
71462;SDS011;59266;52.608;13.260;2022-09-17T06:00:16;14.27;;;2.65;;
71462;SDS011;59266;52.608;13.260;2022-09-17T06:02:43;15.15;;;2.83;;
71462;SDS011;59266;52.608;13.260;2022-09-17T06:05:10;16.20;;;3.17;;
71462;SDS011;59266;52.608;13.260;2022-09-17T06:07:37;15.68;;;3.22;;
71462;SDS011;59266;52.608;13.260;2022-09-17T06:10:05;16.05;;;3.78;;
71462;SDS011;59266;52.608;13.260;2022-09-17T06:12:33;16.25;;;2.88;;
71462;SDS011;59266;52.608;13.260;2022-09-17T06:15:01;14.88;;;2.80;;
71462;SDS011;59266;52.608;13.260;2022-09-17T06:17:34;17.08;;;3.25;;
71462;SDS011;59266;52.608;13.260;2022-09-17T06:20:01;15.05;;;2.85;;
71462;SDS011;59266;52.608;13.260;2022-09-17T06:22:29;16.63;;;3.33;;
71462;SDS011;59266;52.608;13.260;2022-09-17T06:24:56;21.27;;;3.45;;
71462;SDS011;59266;52.608;13.260;2022-09-17T06:27:22;22.80;;;3.97;;
71462;SDS011;59266;52.608;13.260;2022-09-17T06:29:49;15.98;;;3.53;;
71462;SDS011;59266;52.608;13.260;2022-09-17T06:32:15;17.48;;;2.92;;
71462;SDS011;59266;52.608;13.260;2022-09-17T06:34:42;17.40;;;3.03;;
71462;SDS011;59266;52.608;13.260;2022-09-17T06:37:09;24.85;;;3.63;;
71462;SDS011;59266;52.608;13.260;2022-09-17T06:39:35;21.13;;;3.95;;
71462;SDS011;59266;52.608;13.260;2022-09-17T06:42:02;15.00;;;3.28;;
71462;SDS011;59266;52.608;13.260;2022-09-17T06:44:28;20.70;;;3.33;;
71462;SDS011;59266;52.608;13.260;2022-09-17T06:46:55;23.15;;;3.60;;
71462;SDS011;59266;52.608;13.260;2022-09-17T06:49:22;19.70;;;3.17;;
71462;SDS011;59266;52.608;13.260;2022-09-17T06:51:49;17.80;;;3.15;;
71462;SDS011;59266;52.608;13.260;2022-09-17T06:54:15;16.30;;;3.00;;
71462;SDS011;59266;52.608;13.260;2022-09-17T06:56:42;17.38;;;2.80;;
71462;SDS011;59266;52.608;13.260;2022-09-17T06:59:11;22.70;;;3.20;;
71462;SDS011;59266;52.608;13.260;2022-09-17T07:01:37;21.63;;;2.88;;
71462;SDS011;59266;52.608;13.260;2022-09-17T07:04:04;23.13;;;3.80;;
71462;SDS011;59266;52.608;13.260;2022-09-17T07:06:30;17.30;;;3.33;;
71462;SDS011;59266;52.608;13.260;2022-09-17T07:08:57;18.85;;;3.50;;
71462;SDS011;59266;52.608;13.260;2022-09-17T07:11:23;14.27;;;3.15;;
71462;SDS011;59266;52.608;13.260;2022-09-17T07:13:50;19.63;;;2.70;;
71462;SDS011;59266;52.608;13.260;2022-09-17T07:16:16;17.45;;;2.80;;
71462;SDS011;59266;52.608;13.260;2022-09-17T07:18:43;15.30;;;2.50;;
71462;SDS011;59266;52.608;13.260;2022-09-17T07:21:09;14.15;;;2.92;;
71462;SDS011;59266;52.608;13.260;2022-09-17T07:23:36;13.63;;;2.65;;
71462;SDS011;59266;52.608;13.260;2022-09-17T07:26:03;14.50;;;2.92;;
71462;SDS011;59266;52.608;13.260;2022-09-17T07:28:37;17.33;;;2.85;;
71462;SDS011;59266;52.608;13.260;2022-09-17T07:31:04;16.33;;;3.05;;
71462;SDS011;59266;52.608;13.260;2022-09-17T07:33:32;15.18;;;2.90;;
71462;SDS011;59266;52.608;13.260;2022-09-17T07:36:01;17.33;;;3.13;;
71462;SDS011;59266;52.608;13.260;2022-09-17T07:38:30;21.25;;;2.42;;
71462;SDS011;59266;52.608;13.260;2022-09-17T07:40:57;16.80;;;3.20;;
71462;SDS011;59266;52.608;13.260;2022-09-17T07:43:25;17.05;;;2.80;;
71462;SDS011;59266;52.608;13.260;2022-09-17T07:45:55;22.02;;;2.40;;
71462;SDS011;59266;52.608;13.260;2022-09-17T07:48:24;16.73;;;2.90;;
71462;SDS011;59266;52.608;13.260;2022-09-17T07:50:51;14.95;;;2.65;;
71462;SDS011;59266;52.608;13.260;2022-09-17T07:53:17;24.80;;;2.47;;
71462;SDS011;59266;52.608;13.260;2022-09-17T07:55:51;15.30;;;2.28;;
71462;SDS011;59266;52.608;13.260;2022-09-17T07:58:18;11.82;;;2.33;;
71462;SDS011;59266;52.608;13.260;2022-09-17T08:00:45;18.92;;;2.67;;
71462;SDS011;59266;52.608;13.260;2022-09-17T08:03:12;16.70;;;2.38;;
71462;SDS011;59266;52.608;13.260;2022-09-17T08:05:39;14.57;;;2.45;;
71462;SDS011;59266;52.608;13.260;2022-09-17T08:08:05;15.95;;;2.25;;
71462;SDS011;59266;52.608;13.260;2022-09-17T08:10:32;10.50;;;2.20;;
71462;SDS011;59266;52.608;13.260;2022-09-17T08:12:58;16.90;;;3.00;;
71462;SDS011;59266;52.608;13.260;2022-09-17T08:15:25;11.95;;;1.95;;
71462;SDS011;59266;52.608;13.260;2022-09-17T08:17:52;11.60;;;2.20;;
71462;SDS011;59266;52.608;13.260;2022-09-17T08:20:18;12.15;;;2.03;;
71462;SDS011;59266;52.608;13.260;2022-09-17T08:22:45;13.43;;;2.15;;
71462;SDS011;59266;52.608;13.260;2022-09-17T08:25:15;22.17;;;2.58;;
71462;SDS011;59266;52.608;13.260;2022-09-17T08:27:41;12.68;;;2.05;;
71462;SDS011;59266;52.608;13.260;2022-09-17T08:30:08;11.13;;;1.80;;
71462;SDS011;59266;52.608;13.260;2022-09-17T08:32:35;14.45;;;2.05;;
71462;SDS011;59266;52.608;13.260;2022-09-17T08:35:01;9.35;;;1.60;;
71462;SDS011;59266;52.608;13.260;2022-09-17T08:37:28;9.75;;;2.00;;
71462;SDS011;59266;52.608;13.260;2022-09-17T08:39:55;17.55;;;2.95;;
71462;SDS011;59266;52.608;13.260;2022-09-17T08:42:29;12.30;;;1.70;;
71462;SDS011;59266;52.608;13.260;2022-09-17T08:45:03;10.77;;;2.10;;
71462;SDS011;59266;52.608;13.260;2022-09-17T08:47:34;10.40;;;2.05;;
71462;SDS011;59266;52.608;13.260;2022-09-17T08:50:05;11.20;;;2.33;;
71462;SDS011;59266;52.608;13.260;2022-09-17T08:52:43;11.02;;;1.55;;
71462;SDS011;59266;52.608;13.260;2022-09-17T08:55:22;10.02;;;1.60;;
71462;SDS011;59266;52.608;13.260;2022-09-17T08:58:27;9.13;;;1.67;;
71462;SDS011;59266;52.608;13.260;2022-09-17T09:01:23;12.32;;;1.70;;
71462;SDS011;59266;52.608;13.260;2022-09-17T09:04:06;10.93;;;2.08;;
71462;SDS011;59266;52.608;13.260;2022-09-17T09:06:46;16.42;;;2.55;;
71462;SDS011;59266;52.608;13.260;2022-09-17T09:09:17;9.68;;;1.77;;
71462;SDS011;59266;52.608;13.260;2022-09-17T09:11:47;12.73;;;2.80;;
71462;SDS011;59266;52.608;13.260;2022-09-17T09:17:09;10.50;;;2.00;;
71462;SDS011;59266;52.608;13.260;2022-09-17T09:19:42;10.50;;;1.70;;
71462;SDS011;59266;52.608;13.260;2022-09-17T09:22:22;11.38;;;2.08;;
71462;SDS011;59266;52.608;13.260;2022-09-17T09:25:21;13.02;;;1.90;;
71462;SDS011;59266;52.608;13.260;2022-09-17T09:28:05;10.73;;;1.75;;
71462;SDS011;59266;52.608;13.260;2022-09-17T09:30:51;10.82;;;2.10;;
71462;SDS011;59266;52.608;13.260;2022-09-17T09:33:24;11.35;;;1.85;;
71462;SDS011;59266;52.608;13.260;2022-09-17T09:35:53;13.57;;;2.10;;
71462;SDS011;59266;52.608;13.260;2022-09-17T09:38:28;10.18;;;1.92;;
71462;SDS011;59266;52.608;13.260;2022-09-17T09:46:38;10.65;;;1.95;;
71462;SDS011;59266;52.608;13.260;2022-09-17T09:52:37;11.63;;;1.73;;
71462;SDS011;59266;52.608;13.260;2022-09-17T09:58:21;11.27;;;1.63;;
71462;SDS011;59266;52.608;13.260;2022-09-17T10:00:59;13.52;;;2.03;;
71462;SDS011;59266;52.608;13.260;2022-09-17T10:03:29;9.35;;;1.70;;
71462;SDS011;59266;52.608;13.260;2022-09-17T10:06:02;12.68;;;1.73;;
71462;SDS011;59266;52.608;13.260;2022-09-17T10:08:32;9.77;;;1.60;;
71462;SDS011;59266;52.608;13.260;2022-09-17T10:11:05;9.05;;;1.38;;
71462;SDS011;59266;52.608;13.260;2022-09-17T10:13:44;9.75;;;1.98;;
71462;SDS011;59266;52.608;13.260;2022-09-17T10:16:17;9.73;;;1.70;;
71462;SDS011;59266;52.608;13.260;2022-09-17T10:21:36;10.85;;;1.73;;
71462;SDS011;59266;52.608;13.260;2022-09-17T10:24:18;11.13;;;1.65;;
71462;SDS011;59266;52.608;13.260;2022-09-17T10:26:48;11.27;;;1.95;;
71462;SDS011;59266;52.608;13.260;2022-09-17T10:29:17;11.10;;;1.83;;
71462;SDS011;59266;52.608;13.260;2022-09-17T10:31:46;11.15;;;1.75;;
71462;SDS011;59266;52.608;13.260;2022-09-17T10:34:18;8.63;;;1.65;;
71462;SDS011;59266;52.608;13.260;2022-09-17T10:36:46;9.13;;;1.60;;
71462;SDS011;59266;52.608;13.260;2022-09-17T10:39:17;9.77;;;1.60;;
71462;SDS011;59266;52.608;13.260;2022-09-17T10:44:30;8.52;;;1.55;;
71462;SDS011;59266;52.608;13.260;2022-09-17T10:49:45;11.68;;;1.92;;
71462;SDS011;59266;52.608;13.260;2022-09-17T10:58:01;12.18;;;1.77;;
71462;SDS011;59266;52.608;13.260;2022-09-17T11:00:37;8.85;;;1.63;;
71462;SDS011;59266;52.608;13.260;2022-09-17T11:06:44;8.27;;;1.65;;
71462;SDS011;59266;52.608;13.260;2022-09-17T11:12:44;15.73;;;1.80;;
71462;SDS011;59266;52.608;13.260;2022-09-17T11:21:28;10.07;;;1.42;;
71462;SDS011;59266;52.608;13.260;2022-09-17T11:24:10;10.27;;;1.38;;
71462;SDS011;59266;52.608;13.260;2022-09-17T11:26:44;9.30;;;1.67;;
71462;SDS011;59266;52.608;13.260;2022-09-17T11:29:37;8.32;;;1.63;;
71462;SDS011;59266;52.608;13.260;2022-09-17T11:35:18;7.80;;;1.60;;
71462;SDS011;59266;52.608;13.260;2022-09-17T11:37:50;5.22;;;1.40;;
71462;SDS011;59266;52.608;13.260;2022-09-17T11:40:36;9.63;;;1.75;;
71462;SDS011;59266;52.608;13.260;2022-09-17T11:43:15;11.38;;;1.80;;
71462;SDS011;59266;52.608;13.260;2022-09-17T11:46:02;9.18;;;1.80;;
71462;SDS011;59266;52.608;13.260;2022-09-17T11:48:35;9.27;;;1.35;;
71462;SDS011;59266;52.608;13.260;2022-09-17T11:51:19;9.90;;;1.45;;
71462;SDS011;59266;52.608;13.260;2022-09-17T11:53:58;4.70;;;1.00;;
71462;SDS011;59266;52.608;13.260;2022-09-17T11:56:40;6.38;;;1.15;;
71462;SDS011;59266;52.608;13.260;2022-09-17T11:59:14;9.90;;;1.45;;
71462;SDS011;59266;52.608;13.260;2022-09-17T12:01:55;5.63;;;1.10;;
71462;SDS011;59266;52.608;13.260;2022-09-17T12:04:37;8.45;;;1.17;;
71462;SDS011;59266;52.608;13.260;2022-09-17T12:09:59;7.60;;;1.20;;
71462;SDS011;59266;52.608;13.260;2022-09-17T12:12:43;13.73;;;1.33;;
71462;SDS011;59266;52.608;13.260;2022-09-17T12:15:21;7.45;;;1.10;;
71462;SDS011;59266;52.608;13.260;2022-09-17T12:17:55;5.38;;;1.67;;
71462;SDS011;59266;52.608;13.260;2022-09-17T12:23:55;5.65;;;1.13;;
71462;SDS011;59266;52.608;13.260;2022-09-17T12:26:20;3.92;;;0.73;;
71462;SDS011;59266;52.608;13.260;2022-09-17T12:29:11;5.57;;;1.65;;
71462;SDS011;59266;52.608;13.260;2022-09-17T12:38:02;4.70;;;1.25;;
71462;SDS011;59266;52.608;13.260;2022-09-17T12:40:56;6.20;;;1.23;;
71462;SDS011;59266;52.608;13.260;2022-09-17T12:53:01;5.32;;;1.15;;
71462;SDS011;59266;52.608;13.260;2022-09-17T12:58:49;8.25;;;1.30;;
71462;SDS011;59266;52.608;13.260;2022-09-17T13:02:11;6.35;;;1.27;;
71462;SDS011;59266;52.608;13.260;2022-09-17T13:13:18;9.75;;;1.10;;
71462;SDS011;59266;52.608;13.260;2022-09-17T13:16:07;7.35;;;1.33;;
71462;SDS011;59266;52.608;13.260;2022-09-17T13:18:47;6.72;;;1.25;;
71462;SDS011;59266;52.608;13.260;2022-09-17T13:21:53;6.25;;;1.13;;
71462;SDS011;59266;52.608;13.260;2022-09-17T13:24:32;8.77;;;1.23;;
71462;SDS011;59266;52.608;13.260;2022-09-17T13:27:00;7.93;;;1.00;;
71462;SDS011;59266;52.608;13.260;2022-09-17T13:32:40;4.47;;;1.08;;
71462;SDS011;59266;52.608;13.260;2022-09-17T13:40:21;5.38;;;0.90;;
71462;SDS011;59266;52.608;13.260;2022-09-17T13:42:51;9.38;;;1.25;;
71462;SDS011;59266;52.608;13.260;2022-09-17T13:45:23;4.47;;;0.95;;
71462;SDS011;59266;52.608;13.260;2022-09-17T13:55:38;6.25;;;1.35;;
71462;SDS011;59266;52.608;13.260;2022-09-17T14:01:01;5.55;;;1.20;;
71462;SDS011;59266;52.608;13.260;2022-09-17T14:16:31;5.03;;;0.88;;
71462;SDS011;59266;52.608;13.260;2022-09-17T14:19:24;6.85;;;1.10;;
71462;SDS011;59266;52.608;13.260;2022-09-17T14:24:37;7.00;;;1.10;;
71462;SDS011;59266;52.608;13.260;2022-09-17T14:32:50;5.65;;;0.90;;
71462;SDS011;59266;52.608;13.260;2022-09-17T14:38:19;4.97;;;0.80;;
71462;SDS011;59266;52.608;13.260;2022-09-17T14:46:24;3.25;;;0.70;;
71462;SDS011;59266;52.608;13.260;2022-09-17T14:48:52;2.25;;;0.55;;
71462;SDS011;59266;52.608;13.260;2022-09-17T14:53:46;1.05;;;0.50;;
71462;SDS011;59266;52.608;13.260;2022-09-17T14:56:20;2.42;;;0.43;;
71462;SDS011;59266;52.608;13.260;2022-09-17T14:58:51;0.70;;;0.40;;
71462;SDS011;59266;52.608;13.260;2022-09-17T15:01:26;1.77;;;0.40;;
71462;SDS011;59266;52.608;13.260;2022-09-17T15:04:14;2.05;;;0.50;;
71462;SDS011;59266;52.608;13.260;2022-09-17T15:06:46;0.80;;;0.30;;
71462;SDS011;59266;52.608;13.260;2022-09-17T15:09:14;5.38;;;0.60;;
71462;SDS011;59266;52.608;13.260;2022-09-17T15:11:42;1.92;;;0.40;;
71462;SDS011;59266;52.608;13.260;2022-09-17T15:14:13;1.83;;;0.57;;
71462;SDS011;59266;52.608;13.260;2022-09-17T15:16:53;1.08;;;0.40;;
71462;SDS011;59266;52.608;13.260;2022-09-17T15:19:22;0.30;;;0.20;;
71462;SDS011;59266;52.608;13.260;2022-09-17T15:22:08;4.03;;;0.65;;
71462;SDS011;59266;52.608;13.260;2022-09-17T15:24:44;1.85;;;0.52;;
71462;SDS011;59266;52.608;13.260;2022-09-17T15:27:28;2.72;;;0.50;;
71462;SDS011;59266;52.608;13.260;2022-09-17T15:32:35;1.58;;;0.60;;
71462;SDS011;59266;52.608;13.260;2022-09-17T15:37:43;2.90;;;0.70;;
71462;SDS011;59266;52.608;13.260;2022-09-17T15:40:31;3.95;;;0.80;;
71462;SDS011;59266;52.608;13.260;2022-09-17T15:43:01;2.92;;;0.70;;
71462;SDS011;59266;52.608;13.260;2022-09-17T15:45:32;1.73;;;0.60;;
71462;SDS011;59266;52.608;13.260;2022-09-17T15:48:04;3.08;;;0.70;;
71462;SDS011;59266;52.608;13.260;2022-09-17T15:50:48;3.03;;;0.60;;
71462;SDS011;59266;52.608;13.260;2022-09-17T15:58:29;3.55;;;0.70;;
71462;SDS011;59266;52.608;13.260;2022-09-17T16:04:17;4.13;;;0.80;;
71462;SDS011;59266;52.608;13.260;2022-09-17T16:06:51;2.53;;;0.98;;
71462;SDS011;59266;52.608;13.260;2022-09-17T16:12:15;4.97;;;0.85;;
71462;SDS011;59266;52.608;13.260;2022-09-17T16:14:47;5.13;;;1.10;;
71462;SDS011;59266;52.608;13.260;2022-09-17T16:19:58;5.55;;;0.60;;
71462;SDS011;59266;52.608;13.260;2022-09-17T16:22:31;5.07;;;1.05;;
71462;SDS011;59266;52.608;13.260;2022-09-17T16:24:58;4.75;;;1.10;;
71462;SDS011;59266;52.608;13.260;2022-09-17T16:27:26;10.85;;;2.50;;
71462;SDS011;59266;52.608;13.260;2022-09-17T16:29:59;15.05;;;4.35;;
71462;SDS011;59266;52.608;13.260;2022-09-17T16:32:28;7.00;;;1.85;;
71462;SDS011;59266;52.608;13.260;2022-09-17T16:34:57;5.88;;;1.50;;
71462;SDS011;59266;52.608;13.260;2022-09-17T16:37:23;3.47;;;1.02;;
71462;SDS011;59266;52.608;13.260;2022-09-17T16:39:50;5.25;;;0.75;;
71462;SDS011;59266;52.608;13.260;2022-09-17T16:42:17;6.43;;;0.93;;
71462;SDS011;59266;52.608;13.260;2022-09-17T16:44:44;3.58;;;1.02;;
71462;SDS011;59266;52.608;13.260;2022-09-17T16:47:11;8.80;;;1.88;;
71462;SDS011;59266;52.608;13.260;2022-09-17T16:49:38;8.32;;;2.20;;
71462;SDS011;59266;52.608;13.260;2022-09-17T16:52:04;4.85;;;1.20;;
71462;SDS011;59266;52.608;13.260;2022-09-17T16:54:31;3.53;;;1.02;;
71462;SDS011;59266;52.608;13.260;2022-09-17T16:56:57;7.57;;;1.60;;
71462;SDS011;59266;52.608;13.260;2022-09-17T16:59:24;4.72;;;1.40;;
71462;SDS011;59266;52.608;13.260;2022-09-17T17:01:50;3.50;;;1.02;;
71462;SDS011;59266;52.608;13.260;2022-09-17T17:04:17;3.75;;;0.90;;
71462;SDS011;59266;52.608;13.260;2022-09-17T17:06:45;2.53;;;0.73;;
71462;SDS011;59266;52.608;13.260;2022-09-17T17:09:11;4.18;;;1.05;;
71462;SDS011;59266;52.608;13.260;2022-09-17T17:11:38;4.18;;;0.73;;
71462;SDS011;59266;52.608;13.260;2022-09-17T17:14:04;5.47;;;1.10;;
71462;SDS011;59266;52.608;13.260;2022-09-17T17:16:31;5.88;;;1.40;;
71462;SDS011;59266;52.608;13.260;2022-09-17T17:18:58;6.22;;;1.50;;
71462;SDS011;59266;52.608;13.260;2022-09-17T17:21:24;8.10;;;1.77;;
71462;SDS011;59266;52.608;13.260;2022-09-17T17:23:51;6.25;;;1.20;;
71462;SDS011;59266;52.608;13.260;2022-09-17T17:26:17;6.18;;;1.23;;
71462;SDS011;59266;52.608;13.260;2022-09-17T17:28:44;3.15;;;0.73;;
71462;SDS011;59266;52.608;13.260;2022-09-17T17:31:12;4.30;;;1.35;;
71462;SDS011;59266;52.608;13.260;2022-09-17T17:33:39;5.72;;;1.10;;
71462;SDS011;59266;52.608;13.260;2022-09-17T17:36:05;6.03;;;1.30;;
71462;SDS011;59266;52.608;13.260;2022-09-17T17:38:34;5.60;;;1.38;;
71462;SDS011;59266;52.608;13.260;2022-09-17T17:41:01;4.63;;;1.30;;
71462;SDS011;59266;52.608;13.260;2022-09-17T17:43:29;4.28;;;1.00;;
71462;SDS011;59266;52.608;13.260;2022-09-17T17:45:56;6.13;;;1.02;;
71462;SDS011;59266;52.608;13.260;2022-09-17T17:48:22;7.57;;;1.25;;